createdAt,value
2018-12-10T00:01:26.110Z,2.47
2018-12-10T00:06:28.476Z,3.08
2018-12-10T00:11:30.828Z,3.02
2018-12-10T00:16:34.173Z,3.10
2018-12-10T00:21:37.485Z,2.80
2018-12-10T00:26:39.941Z,2.35
2018-12-10T00:31:42.402Z,2.60
2018-12-10T00:36:44.726Z,2.70
2018-12-10T00:41:47.035Z,2.95
2018-12-10T00:46:49.470Z,2.62
2018-12-10T00:51:51.822Z,2.55
2018-12-10T00:56:54.201Z,2.30
2018-12-10T01:01:56.634Z,2.40
2018-12-10T01:06:58.995Z,2.55
2018-12-10T01:12:01.538Z,3.20
2018-12-10T01:17:04.360Z,3.00
2018-12-10T01:22:06.742Z,2.95
2018-12-10T01:27:09.079Z,2.83
2018-12-10T01:32:11.510Z,3.02
2018-12-10T01:37:20.526Z,2.80
2018-12-10T01:42:22.951Z,2.60
2018-12-10T01:47:25.275Z,2.70
2018-12-10T01:52:28.391Z,2.40
2018-12-10T01:57:31.121Z,2.90
2018-12-10T02:02:33.573Z,2.65
2018-12-10T02:07:35.980Z,2.62
2018-12-10T02:12:38.457Z,2.65
2018-12-10T02:17:40.917Z,2.67
2018-12-10T02:22:43.327Z,2.83
2018-12-10T02:27:45.711Z,2.42
2018-12-10T02:32:48.264Z,3.12
2018-12-10T02:37:50.782Z,2.92
2018-12-10T02:42:53.184Z,2.70
2018-12-10T02:47:55.739Z,2.90
2018-12-10T02:52:58.067Z,3.17
2018-12-10T02:58:00.660Z,2.40
2018-12-10T03:03:03.133Z,2.08
2018-12-10T03:08:05.548Z,2.10
2018-12-10T03:13:07.897Z,1.77
2018-12-10T03:18:10.402Z,1.60
2018-12-10T03:23:12.803Z,1.70
2018-12-10T03:28:15.192Z,2.30
2018-12-10T03:33:17.568Z,2.27
2018-12-10T03:38:19.995Z,2.40
2018-12-10T03:43:22.486Z,2.42
2018-12-10T03:48:24.975Z,2.80
2018-12-10T03:53:27.613Z,2.40
2018-12-10T03:58:30.037Z,3.83
2018-12-10T04:03:32.377Z,3.47
2018-12-10T04:08:34.798Z,3.40
2018-12-10T04:13:37.178Z,3.12
2018-12-10T04:18:40.201Z,3.52
2018-12-10T04:23:42.689Z,3.60
2018-12-10T04:28:45.107Z,3.00
2018-12-10T04:33:47.598Z,3.37
2018-12-10T04:38:50.178Z,3.58
2018-12-10T04:43:52.547Z,3.05
2018-12-10T04:48:54.968Z,3.65
2018-12-10T04:53:57.373Z,3.17
2018-12-10T04:58:59.835Z,3.72
2018-12-10T05:04:02.195Z,3.00
2018-12-10T05:09:06.701Z,3.02
2018-12-10T05:14:09.284Z,3.58
2018-12-10T05:19:11.794Z,3.27
2018-12-10T05:24:14.158Z,3.17
2018-12-10T05:29:16.493Z,3.25
2018-12-10T05:34:18.851Z,3.12
2018-12-10T05:39:21.226Z,3.20
2018-12-10T05:44:23.634Z,3.40
2018-12-10T05:49:26.015Z,3.33
2018-12-10T05:54:28.334Z,2.60
2018-12-10T05:59:30.686Z,3.35
2018-12-10T06:04:32.998Z,3.00
2018-12-10T06:09:35.676Z,3.60
2018-12-10T06:14:38.046Z,3.17
2018-12-10T06:19:40.493Z,2.83
2018-12-10T06:24:43.202Z,2.90
2018-12-10T06:29:45.569Z,3.10
2018-12-10T06:34:48.811Z,2.70
2018-12-10T06:39:51.138Z,3.30
2018-12-10T06:44:53.509Z,2.77
2018-12-10T06:49:55.938Z,3.20
2018-12-10T06:54:58.753Z,2.47
2018-12-10T07:00:01.443Z,2.47
2018-12-10T07:05:03.971Z,2.95
2018-12-10T07:10:07.646Z,2.98
2018-12-10T07:15:10.289Z,2.65
2018-12-10T07:20:12.737Z,2.90
2018-12-10T07:25:15.176Z,2.35
2018-12-10T07:30:17.628Z,2.40
2018-12-10T07:35:19.998Z,2.83
2018-12-10T07:40:22.490Z,2.72
2018-12-10T07:45:24.843Z,2.60
2018-12-10T07:50:27.535Z,2.80
2018-12-10T07:55:29.937Z,3.20
2018-12-10T08:00:32.387Z,2.98
2018-12-10T08:05:34.741Z,3.00
2018-12-10T08:10:37.357Z,2.77
2018-12-10T08:15:39.820Z,3.27
2018-12-10T08:20:42.241Z,3.47
2018-12-10T08:25:44.926Z,3.40
2018-12-10T08:30:47.316Z,3.58
2018-12-10T08:35:49.682Z,3.02
2018-12-10T08:40:52.076Z,3.27
2018-12-10T08:45:54.502Z,2.80
2018-12-10T08:50:57.291Z,3.22
2018-12-10T09:01:09.011Z,3.00
2018-12-10T09:06:11.625Z,3.00
2018-12-10T09:11:14.070Z,3.15
2018-12-10T09:21:25.753Z,3.17
2018-12-10T09:26:28.703Z,3.40
2018-12-10T09:31:31.162Z,3.90
2018-12-10T09:36:33.646Z,3.45
2018-12-10T09:41:36.176Z,3.98
2018-12-10T09:46:38.943Z,3.40
2018-12-10T09:51:42.956Z,3.90
2018-12-10T09:56:45.690Z,3.33
2018-12-10T10:01:48.261Z,3.40
2018-12-10T10:06:50.730Z,3.20
2018-12-10T10:11:53.176Z,2.87
2018-12-10T10:16:55.717Z,3.20
2018-12-10T10:21:58.566Z,3.17
2018-12-10T10:27:00.974Z,3.33
2018-12-10T10:32:03.491Z,3.35
2018-12-10T10:37:06.153Z,2.77
2018-12-10T10:42:08.647Z,3.17
2018-12-10T10:47:11.154Z,3.10
2018-12-10T10:52:13.526Z,2.70
2018-12-10T10:57:16.981Z,2.87
2018-12-10T11:02:25.066Z,2.45
2018-12-10T11:07:27.550Z,2.90
2018-12-10T11:12:29.982Z,2.90
2018-12-10T11:17:32.674Z,2.67
2018-12-10T11:22:35.227Z,2.60
2018-12-10T11:27:37.734Z,2.70
2018-12-10T11:32:40.446Z,2.40
2018-12-10T11:37:42.849Z,2.67
2018-12-10T11:42:45.516Z,2.45
2018-12-10T11:47:47.949Z,2.40
2018-12-10T11:52:50.671Z,2.35
2018-12-10T11:57:53.177Z,2.20
2018-12-10T12:02:55.672Z,2.58
2018-12-10T12:07:58.085Z,2.20
2018-12-10T12:13:00.727Z,2.45
2018-12-10T12:18:03.114Z,2.45
2018-12-10T12:23:05.494Z,2.30
2018-12-10T12:28:07.971Z,2.52
2018-12-10T12:33:10.431Z,2.87
2018-12-10T12:38:12.988Z,2.42
2018-12-10T12:43:16.254Z,2.65
2018-12-10T12:48:19.141Z,2.45
2018-12-10T12:53:21.744Z,2.65
2018-12-10T12:58:24.231Z,3.37
2018-12-10T13:03:26.675Z,3.20
2018-12-10T13:08:31.121Z,3.40
2018-12-10T13:13:33.552Z,3.50
2018-12-10T13:18:36.241Z,2.98
2018-12-10T13:23:39.812Z,3.45
2018-12-10T13:28:42.481Z,3.35
2018-12-10T13:33:44.947Z,3.60
2018-12-10T13:38:48.158Z,3.17
2018-12-10T13:43:50.583Z,3.47
2018-12-10T13:48:52.993Z,2.92
2018-12-10T13:53:55.612Z,2.98
2018-12-10T13:58:58.202Z,2.62
2018-12-10T14:04:03.074Z,2.72
2018-12-10T14:09:08.104Z,3.42
2018-12-10T14:14:10.815Z,3.20
2018-12-10T14:19:13.666Z,3.70
2018-12-10T14:24:16.321Z,3.08
2018-12-10T14:29:18.814Z,4.05
2018-12-10T14:34:25.934Z,4.28
2018-12-10T14:39:28.505Z,4.10
2018-12-10T14:44:31.056Z,4.10
2018-12-10T14:49:33.640Z,3.90
2018-12-10T14:54:36.139Z,4.25
2018-12-10T14:59:38.624Z,4.50
2018-12-10T15:04:41.094Z,4.12
2018-12-10T15:09:43.842Z,4.70
2018-12-10T15:14:46.356Z,4.55
2018-12-10T15:19:48.895Z,5.30
2018-12-10T15:24:51.440Z,3.92
2018-12-10T15:29:54.024Z,3.65
2018-12-10T15:34:57.210Z,3.35
2018-12-10T15:39:59.713Z,3.90
2018-12-10T15:45:02.203Z,3.75
2018-12-10T15:50:04.781Z,3.65
2018-12-10T15:55:07.385Z,3.80
2018-12-10T16:00:10.158Z,3.70
2018-12-10T16:05:12.640Z,3.42
2018-12-10T16:10:15.137Z,3.72
2018-12-10T16:15:17.662Z,2.95
2018-12-10T16:20:20.485Z,3.27
2018-12-10T16:25:23.003Z,3.37
2018-12-10T16:30:25.866Z,2.80
2018-12-10T16:35:28.345Z,2.92
2018-12-10T16:40:31.071Z,4.25
2018-12-10T16:45:33.518Z,3.45
2018-12-10T16:50:36.163Z,3.60
2018-12-10T16:55:38.585Z,3.37
2018-12-10T17:00:41.017Z,3.40
2018-12-10T17:05:43.715Z,3.50
2018-12-10T17:10:46.470Z,5.00
2018-12-10T17:15:49.058Z,3.50
2018-12-10T17:20:52.869Z,3.72
2018-12-10T17:25:56.101Z,3.83
2018-12-10T17:30:58.533Z,3.67
2018-12-10T17:36:04.034Z,3.42
2018-12-10T17:41:06.769Z,3.22
2018-12-10T17:46:09.241Z,3.52
2018-12-10T17:51:12.578Z,4.08
2018-12-10T17:56:15.403Z,4.53
2018-12-10T18:01:18.406Z,4.15
2018-12-10T18:06:20.862Z,4.20
2018-12-10T18:11:23.314Z,4.50
2018-12-10T18:16:25.835Z,4.25
2018-12-10T18:21:28.298Z,4.75
2018-12-10T18:26:31.278Z,5.12
2018-12-10T18:31:33.743Z,4.60
2018-12-10T18:36:36.441Z,5.00
2018-12-10T18:41:40.312Z,5.15
2018-12-10T18:46:43.185Z,5.55
2018-12-10T18:51:49.182Z,5.10
2018-12-10T18:56:51.559Z,5.28
2018-12-10T19:01:54.041Z,5.33
2018-12-10T19:06:57.330Z,6.10
2018-12-10T19:11:59.983Z,5.47
2018-12-10T19:17:02.627Z,4.87
2018-12-10T19:22:06.274Z,3.60
2018-12-10T19:27:08.754Z,3.90
2018-12-10T19:32:12.259Z,3.65
2018-12-10T19:37:14.614Z,3.75
2018-12-10T19:42:17.121Z,3.90
2018-12-10T19:47:19.560Z,3.30
2018-12-10T19:52:22.344Z,3.47
2018-12-10T19:57:24.795Z,3.80
2018-12-10T20:02:27.445Z,3.75
2018-12-10T20:07:29.890Z,4.75
2018-12-10T20:12:32.603Z,4.28
2018-12-10T20:17:35.211Z,5.30
2018-12-10T20:22:37.684Z,4.55
2018-12-10T20:27:40.184Z,4.65
2018-12-10T20:32:42.982Z,4.35
2018-12-10T20:37:45.534Z,3.72
2018-12-10T20:42:48.184Z,4.25
2018-12-10T20:47:50.624Z,4.37
2018-12-10T20:52:53.506Z,4.65
2018-12-10T20:57:55.980Z,3.92
2018-12-10T21:02:58.404Z,3.67
2018-12-10T21:08:00.985Z,4.33
2018-12-10T21:13:03.469Z,4.08
2018-12-10T21:18:05.928Z,4.60
2018-12-10T21:23:09.022Z,5.83
2018-12-10T21:28:11.419Z,5.12
2018-12-10T21:33:14.834Z,4.47
2018-12-10T21:38:17.258Z,5.50
2018-12-10T21:43:19.714Z,4.10
2018-12-10T21:48:22.233Z,4.15
2018-12-10T21:53:24.744Z,4.90
2018-12-10T21:58:27.533Z,5.62
2018-12-10T22:03:30.051Z,4.90
2018-12-10T22:08:33.339Z,4.50
2018-12-10T22:13:35.816Z,4.62
2018-12-10T22:18:38.242Z,4.78
2018-12-10T22:23:41.258Z,3.83
2018-12-10T22:28:43.652Z,4.25
2018-12-10T22:33:46.150Z,4.20
2018-12-10T22:38:49.466Z,4.58
2018-12-10T22:43:51.924Z,3.92
2018-12-10T22:48:54.446Z,4.17
2018-12-10T22:53:56.938Z,3.72
2018-12-10T22:59:00.026Z,3.87
2018-12-10T23:04:03.990Z,3.67
2018-12-10T23:09:07.400Z,3.83
2018-12-10T23:14:09.821Z,3.50
2018-12-10T23:19:18.938Z,4.05
2018-12-10T23:24:21.363Z,3.62
2018-12-10T23:29:23.741Z,4.22
2018-12-10T23:34:26.183Z,4.33
2018-12-10T23:39:28.517Z,3.40
2018-12-10T23:44:36.594Z,3.20
2018-12-10T23:49:39.000Z,3.33
2018-12-10T23:54:41.406Z,3.62
2018-12-10T23:59:43.746Z,3.77
